Detall de PIREP

Printer-friendly versionPDF version

[2015/03/30 14:02:00]
Flight IATA:CT1004
Pilot Number:012
Company ICAO:CAT
Aircraft Type:B738/F
PAX:160
Departing Airport: LWSK
Destination Airport: LIEA
Alternate Airport:LIEO
Online: VATSIM
Route:GOSTI UP92 BRD UM603 SOR UM620 POKAV UM603 MOROB
Flight Level:F360
No Slew and time accel
No pause
Crash detect
Detect pilot in Cockpit between each 30 and 45 minutes
14:02 Zero fuel Weight: 123173 Lbs, Fuel Weight: 19195 Lbs
14:02 VATSIM:LWSK 301400Z 00000KT 9999 -RA SCT060 OVC080 11/04 Q1007 NOSIG
14:02 VATSIM:LIEA 301350Z 33012KT 290V350 CAVOK 18/11 Q1015
14:02 EASTER CHARTER
14:02 Parking Brakes off
14:06 Take-off
14:06 Take off Weight: 141906 Lbs
14:06 Wind: 239º @ 000 Knots Heading: 345º
14:06 POS N41º 58´ 06´´ E021º 37´ 09´´
14:06 Gear Up: 159 Knots
14:06 Flaps:3 at 159 Knots
14:06 Flaps:2 at 169 Knots
14:07 Flaps:1 at 200 Knots
14:07 Flaps:0 at 202 Knots
14:21 Wind:291º@038 Knots Heading: 250º Ground Speed: 444 Knots Altitude 30223 ft
14:25 TOC
14:25 Fuel Weight: 15032 Lb
14:36 Wind:307º@082 Knots Heading: 261º Ground Speed: 407 Knots Altitude 35816 ft
14:51 Wind:313º@086 Knots Heading: 276º Ground Speed: 395 Knots Altitude 35797 ft
15:06 Wind:320º@073 Knots Heading: 285º Ground Speed: 405 Knots Altitude 35784 ft
15:21 Wind:324º@088 Knots Heading: 282º Ground Speed: 402 Knots Altitude 35797 ft
15:24 TOD
15:24 Fuel Weight: 9719 Lb
15:36 Wind:337º@049 Knots Heading: 271º Ground Speed: 383 Knots Altitude 19685 ft
15:41 Flaps:1 at 251 Knots
15:42 Flaps:2 at 228 Knots
15:43 Flaps:3 at 220 Knots
15:44 Flaps:4 at 206 Knots
15:45 Gear Down: 199 Knots
15:45 Flaps:5 at 183 Knots
15:46 Flaps:6 at 171 Knots
15:46 Flaps:7 at 154 Knots
15:48 Flaps:8 at 126 Knots
15:51 Wind:305º@012 Knots Heading: 002º Ground Speed: 136 Knots Altitude 1243 ft
15:52 TouchDown:Rate -133 ft/min Speed: 127 Knots
15:52 Flaps:4 at 64 Knots
15:52 Flaps:1 at 63 Knots
15:52 VATSIM:LIEA 301520Z 31012G22KT 280V340 CAVOK 17/11 Q1015
15:52 Land
15:52 Wind:302º@012 Knots
15:52 Heading: 025º
15:52 Flight Duration: 01:46
15:52 Landing Weight: 130949 Lbs
15:52 POS N40º 37´ 46´´ E008º 17´ 21´´
15:55 Parking brakes on
15:55 Block to Block Duration: 01:53
15:55 Final Fuel: 7612 Lbls
15:55 Spent Fuel: 11582 Lbls
15:55 Flight Length: 659 NM
15:55 TOD Land Length: 142 NM

Exportar CSV

Powered by Drupal - Modified by Danger4k